createdAt,value
2023-02-18T00:02:23.016Z,78.13
2023-02-18T00:04:49.719Z,76.40
2023-02-18T00:07:16.403Z,75.37
2023-02-18T00:09:43.049Z,86.33
2023-02-18T00:12:09.680Z,81.20
2023-02-18T00:14:36.316Z,81.00
2023-02-18T00:17:02.965Z,80.77
2023-02-18T00:19:29.682Z,83.53
2023-02-18T00:21:56.376Z,76.50
2023-02-18T00:24:23.202Z,87.57
2023-02-18T00:26:53.595Z,78.27
2023-02-18T00:29:20.622Z,89.90
2023-02-18T00:31:47.448Z,87.67
2023-02-18T00:34:14.417Z,81.07
2023-02-18T00:36:41.327Z,80.53
2023-02-18T00:39:10.006Z,87.37
2023-02-18T00:41:37.577Z,84.13
2023-02-18T00:44:04.835Z,95.13
2023-02-18T00:46:31.713Z,77.73
2023-02-18T00:48:58.435Z,81.80
2023-02-18T00:51:25.588Z,93.50
2023-02-18T00:53:52.808Z,95.83
2023-02-18T00:56:19.701Z,82.57
2023-02-18T00:58:46.518Z,94.00
2023-02-18T01:01:13.640Z,93.23
2023-02-18T01:03:41.884Z,91.30
2023-02-18T01:06:11.085Z,100.83
2023-02-18T01:08:39.745Z,100.60
2023-02-18T01:11:08.245Z,109.27
2023-02-18T01:13:35.755Z,95.57
2023-02-18T01:16:02.709Z,102.23
2023-02-18T01:18:29.895Z,94.20
2023-02-18T01:20:57.414Z,89.50
2023-02-18T01:23:24.432Z,92.90
2023-02-18T01:25:51.704Z,92.37
2023-02-18T01:28:19.111Z,87.30
2023-02-18T01:30:45.814Z,92.80
2023-02-18T01:33:12.516Z,84.93
2023-02-18T01:35:40.875Z,86.50
2023-02-18T01:38:07.994Z,92.83
2023-02-18T01:40:34.878Z,90.43
2023-02-18T01:43:01.661Z,88.53
2023-02-18T01:45:34.593Z,101.33
2023-02-18T01:48:10.263Z,93.27
2023-02-18T01:50:41.646Z,95.50
2023-02-18T01:53:08.755Z,98.20
2023-02-18T01:55:36.885Z,96.50
2023-02-18T01:58:03.961Z,91.90
2023-02-18T02:00:32.699Z,100.87
2023-02-18T02:02:59.484Z,109.43
2023-02-18T02:05:32.082Z,110.93
2023-02-18T02:07:59.530Z,107.97
2023-02-18T02:10:37.111Z,114.10
2023-02-18T02:13:09.489Z,106.53
2023-02-18T02:15:41.595Z,101.77
2023-02-18T02:18:12.310Z,93.97
2023-02-18T02:21:10.057Z,107.20
2023-02-18T02:23:45.815Z,115.87
2023-02-18T02:26:49.286Z,97.00
2023-02-18T02:29:38.432Z,89.70
2023-02-18T02:32:14.324Z,85.03
2023-02-18T02:35:06.642Z,81.57
2023-02-18T02:37:41.889Z,68.67
2023-02-18T02:40:28.450Z,65.97
2023-02-18T02:43:12.949Z,69.83
2023-02-18T02:46:12.307Z,67.33
2023-02-18T02:49:08.357Z,66.63
2023-02-18T02:51:54.279Z,73.53
2023-02-18T02:54:24.259Z,84.17
2023-02-18T02:57:04.256Z,86.73
2023-02-18T02:59:31.366Z,84.43
2023-02-18T03:02:33.896Z,86.70
2023-02-18T03:05:03.518Z,79.70
2023-02-18T03:07:51.966Z,88.80
2023-02-18T03:10:44.174Z,100.33
2023-02-18T03:13:46.413Z,101.07
2023-02-18T03:16:13.080Z,119.07
2023-02-18T03:18:42.736Z,107.83
2023-02-18T03:21:11.849Z,111.07
2023-02-18T03:24:00.238Z,123.97
2023-02-18T03:26:30.338Z,113.47
2023-02-18T03:29:01.282Z,118.73
2023-02-18T03:31:30.146Z,119.60
2023-02-18T03:34:04.162Z,127.90
2023-02-18T03:36:32.910Z,127.30
2023-02-18T03:39:04.597Z,123.30
2023-02-18T03:41:31.476Z,133.43
2023-02-18T03:44:04.671Z,137.80
2023-02-18T03:46:32.258Z,117.73
2023-02-18T03:48:59.071Z,137.53
2023-02-18T03:51:25.733Z,134.83
2023-02-18T03:53:52.400Z,126.03
2023-02-18T03:56:21.354Z,124.57
2023-02-18T03:58:48.269Z,137.70
2023-02-18T04:01:15.406Z,103.67
2023-02-18T04:03:42.267Z,94.17
2023-02-18T04:06:09.681Z,92.93
2023-02-18T04:08:36.716Z,93.53
2023-02-18T04:11:05.026Z,84.13
2023-02-18T04:13:32.264Z,81.73
2023-02-18T04:15:58.954Z,72.97
2023-02-18T04:18:25.614Z,63.43
2023-02-18T04:20:52.327Z,56.13
2023-02-18T04:23:19.109Z,57.93
2023-02-18T04:25:45.857Z,41.97
2023-02-18T04:28:15.283Z,40.63
2023-02-18T04:30:42.458Z,31.30
2023-02-18T04:33:09.272Z,31.40
2023-02-18T04:35:36.779Z,35.40
2023-02-18T04:38:03.763Z,28.73
2023-02-18T04:40:30.704Z,31.07
2023-02-18T04:42:58.282Z,26.30
2023-02-18T04:45:26.035Z,23.90
2023-02-18T04:47:53.125Z,25.07
2023-02-18T04:50:21.533Z,29.13
2023-02-18T04:52:48.220Z,21.10
2023-02-18T04:55:14.939Z,24.43
2023-02-18T04:57:41.603Z,22.50
2023-02-18T05:00:11.270Z,21.17
2023-02-18T05:02:38.238Z,20.40
2023-02-18T05:05:05.850Z,18.07
2023-02-18T05:07:32.647Z,19.50
2023-02-18T05:09:59.298Z,20.10
2023-02-18T05:12:26.092Z,19.83
2023-02-18T05:14:52.751Z,17.37
2023-02-18T05:17:19.447Z,17.83
2023-02-18T05:19:46.117Z,22.17
2023-02-18T05:22:12.764Z,15.53
2023-02-18T05:24:39.439Z,14.80
2023-02-18T05:27:06.063Z,18.50
2023-02-18T05:29:32.723Z,17.30
2023-02-18T05:31:59.398Z,16.60
2023-02-18T05:34:26.119Z,16.60
2023-02-18T05:36:52.755Z,15.80
2023-02-18T05:39:19.435Z,14.90
2023-02-18T05:41:46.088Z,15.20
2023-02-18T05:44:30.897Z,16.33
2023-02-18T05:46:59.267Z,15.07
2023-02-18T05:49:26.078Z,15.57
2023-02-18T05:51:52.744Z,16.27
2023-02-18T05:54:19.696Z,14.30
2023-02-18T05:56:46.470Z,16.60
2023-02-18T05:59:13.826Z,15.27
2023-02-18T06:01:40.888Z,14.20
2023-02-18T06:04:07.853Z,14.70
2023-02-18T06:06:35.137Z,13.97
2023-02-18T06:09:02.060Z,13.73
2023-02-18T06:11:28.718Z,14.97
2023-02-18T06:13:55.395Z,16.23
2023-02-18T06:16:22.141Z,16.13
2023-02-18T06:18:48.850Z,13.73
2023-02-18T06:21:15.748Z,14.90
2023-02-18T06:23:42.415Z,15.27
2023-02-18T06:26:09.519Z,17.47
2023-02-18T06:28:36.396Z,19.07
2023-02-18T06:31:03.340Z,20.57
2023-02-18T06:33:30.096Z,22.87
2023-02-18T06:36:03.187Z,28.40
2023-02-18T06:38:30.018Z,24.80
2023-02-18T06:40:56.724Z,27.60
2023-02-18T06:43:23.408Z,35.17
2023-02-18T06:45:50.223Z,32.87
2023-02-18T06:48:17.032Z,34.80
2023-02-18T06:50:43.807Z,40.50
2023-02-18T06:53:10.961Z,37.47
2023-02-18T06:55:38.687Z,40.40
2023-02-18T06:58:05.729Z,39.07
2023-02-18T07:00:32.500Z,39.67
2023-02-18T07:02:59.249Z,37.37
2023-02-18T07:05:26.146Z,37.40
2023-02-18T07:07:52.833Z,40.47
2023-02-18T07:10:19.756Z,36.50
2023-02-18T07:12:46.587Z,36.70
2023-02-18T07:15:13.280Z,38.33
2023-02-18T07:17:39.964Z,37.97
2023-02-18T07:20:07.480Z,34.97
2023-02-18T07:22:34.130Z,38.93
2023-02-18T07:25:00.838Z,36.77
2023-02-18T07:27:27.599Z,33.80
2023-02-18T07:29:54.957Z,29.90
2023-02-18T07:32:21.806Z,28.93
2023-02-18T07:34:48.451Z,24.80
2023-02-18T07:37:15.097Z,21.00
2023-02-18T07:39:43.194Z,20.60
2023-02-18T07:42:11.108Z,22.50
2023-02-18T07:44:38.385Z,19.53
2023-02-18T07:47:06.806Z,22.30
2023-02-18T07:49:34.624Z,19.03
2023-02-18T07:52:01.866Z,24.23
2023-02-18T07:54:29.292Z,26.37
2023-02-18T07:56:55.930Z,27.27
2023-02-18T07:59:22.748Z,26.60
2023-02-18T08:01:49.409Z,31.63
2023-02-18T08:04:16.329Z,28.67
2023-02-18T08:06:48.376Z,27.37
2023-02-18T08:09:16.041Z,28.70
2023-02-18T08:11:43.002Z,31.13
2023-02-18T08:14:09.772Z,32.20
2023-02-18T08:16:36.525Z,29.67
2023-02-18T08:19:04.012Z,35.73
2023-02-18T08:21:31.237Z,30.23
2023-02-18T08:23:59.410Z,29.97
2023-02-18T08:26:26.674Z,32.90
2023-02-18T08:28:53.368Z,29.07
2023-02-18T08:31:25.031Z,29.63
2023-02-18T08:33:53.705Z,31.90
2023-02-18T08:36:21.020Z,31.10
2023-02-18T08:38:47.733Z,37.87
2023-02-18T08:41:14.894Z,36.37
2023-02-18T08:43:42.542Z,28.67
2023-02-18T08:46:15.802Z,29.40
2023-02-18T08:48:44.317Z,33.17
2023-02-18T08:51:22.279Z,33.10
2023-02-18T08:53:49.862Z,28.70
2023-02-18T08:56:17.703Z,32.50
2023-02-18T08:58:44.519Z,32.20
2023-02-18T09:01:13.027Z,29.13
2023-02-18T09:03:40.253Z,26.83
2023-02-18T09:06:07.209Z,25.07
2023-02-18T09:08:34.012Z,23.47
2023-02-18T09:11:04.457Z,20.93
2023-02-18T09:13:31.884Z,24.37
2023-02-18T09:16:04.460Z,21.40
2023-02-18T09:18:32.398Z,19.20
2023-02-18T09:21:00.525Z,17.83
2023-02-18T09:23:28.716Z,21.00
2023-02-18T09:25:55.755Z,25.13
2023-02-18T09:28:22.859Z,19.60
2023-02-18T09:30:49.682Z,29.13
2023-02-18T09:33:16.952Z,18.87
2023-02-18T09:35:45.695Z,30.47
2023-02-18T09:38:15.335Z,21.50
2023-02-18T09:40:53.621Z,27.60
2023-02-18T09:43:32.059Z,28.33
2023-02-18T09:46:00.301Z,24.57
2023-02-18T09:48:31.190Z,22.50
2023-02-18T09:50:58.147Z,22.13
2023-02-18T09:53:25.750Z,25.90
2023-02-18T09:55:54.871Z,23.80
2023-02-18T09:58:25.867Z,29.03
2023-02-18T10:01:08.348Z,23.27
2023-02-18T10:03:35.311Z,20.53
2023-02-18T10:06:15.900Z,28.13
2023-02-18T10:08:48.467Z,28.13
2023-02-18T10:11:35.483Z,24.50
2023-02-18T10:14:04.075Z,27.07
2023-02-18T10:16:31.195Z,24.83
2023-02-18T10:19:01.142Z,26.17
2023-02-18T10:21:31.360Z,27.30
2023-02-18T10:24:17.568Z,19.70
2023-02-18T10:26:44.213Z,20.00
2023-02-18T10:29:16.854Z,15.17
2023-02-18T10:31:53.427Z,24.77
2023-02-18T10:34:28.567Z,22.33
2023-02-18T10:37:24.492Z,24.20
2023-02-18T10:40:13.009Z,23.83
2023-02-18T10:43:13.904Z,24.60
2023-02-18T10:45:48.703Z,23.57
2023-02-18T10:48:52.899Z,20.63
2023-02-18T10:51:25.938Z,23.20
2023-02-18T10:53:53.811Z,25.40
2023-02-18T10:56:35.346Z,18.90
2023-02-18T10:59:20.348Z,23.87
2023-02-18T11:01:58.538Z,21.87
2023-02-18T11:04:44.095Z,14.77
2023-02-18T11:07:21.248Z,15.67
2023-02-18T11:09:56.195Z,20.97
2023-02-18T11:12:27.399Z,19.87
2023-02-18T11:15:17.047Z,18.23
2023-02-18T11:17:48.664Z,17.70
2023-02-18T11:20:30.506Z,23.07
2023-02-18T11:22:59.576Z,17.83
2023-02-18T11:25:33.144Z,14.67
2023-02-18T11:28:03.221Z,15.53
2023-02-18T11:30:46.800Z,15.80
2023-02-18T11:33:42.453Z,14.73
2023-02-18T11:36:29.934Z,15.47
2023-02-18T11:38:59.310Z,14.73
2023-02-18T11:41:39.749Z,12.47
2023-02-18T11:44:17.956Z,14.57
2023-02-18T11:47:20.080Z,11.37
2023-02-18T11:50:01.317Z,18.97
2023-02-18T11:52:34.135Z,15.90
2023-02-18T11:55:30.617Z,11.47
2023-02-18T11:58:00.186Z,17.77
2023-02-18T12:00:47.746Z,11.57
2023-02-18T12:03:21.447Z,11.93
2023-02-18T12:05:48.653Z,14.93
2023-02-18T12:08:24.220Z,11.20
2023-02-18T12:11:00.108Z,11.47
2023-02-18T12:13:33.195Z,9.37
2023-02-18T12:16:26.698Z,8.33
2023-02-18T12:19:17.800Z,11.80
2023-02-18T12:22:02.972Z,7.00
2023-02-18T12:24:35.778Z,11.13
2023-02-18T12:27:28.235Z,10.00
2023-02-18T12:30:05.590Z,10.07
2023-02-18T12:32:46.377Z,9.93
2023-02-18T12:35:40.110Z,11.70
2023-02-18T12:38:44.531Z,8.43
2023-02-18T12:41:39.780Z,17.50
2023-02-18T12:44:12.229Z,10.23
2023-02-18T12:46:57.275Z,12.90
2023-02-18T12:49:47.659Z,14.33
2023-02-18T12:52:53.030Z,12.47
2023-02-18T12:55:35.080Z,10.33
2023-02-18T12:58:28.625Z,11.50
2023-02-18T13:01:21.386Z,13.00
2023-02-18T13:04:21.793Z,8.10
2023-02-18T13:07:23.624Z,14.20
2023-02-18T13:10:21.589Z,11.63
2023-02-18T13:13:12.578Z,10.83
2023-02-18T13:15:54.976Z,11.53
2023-02-18T13:18:28.167Z,8.10
2023-02-18T13:21:07.538Z,10.33
2023-02-18T13:23:51.892Z,17.80
2023-02-18T13:26:21.076Z,10.63
2023-02-18T13:29:05.712Z,14.93
2023-02-18T13:31:55.953Z,14.37
2023-02-18T13:34:25.656Z,8.83
2023-02-18T13:37:03.555Z,8.63
2023-02-18T13:39:31.322Z,6.37
2023-02-18T13:42:24.421Z,8.50
2023-02-18T13:44:56.794Z,12.87
2023-02-18T13:47:35.653Z,12.73
2023-02-18T13:50:14.880Z,10.60
2023-02-18T13:52:41.754Z,7.47
2023-02-18T13:55:20.386Z,7.07
2023-02-18T13:57:54.593Z,10.97
2023-02-18T14:00:34.356Z,7.80
2023-02-18T14:03:35.976Z,12.13
2023-02-18T14:06:14.404Z,11.30
2023-02-18T14:08:41.335Z,6.30
2023-02-18T14:11:14.314Z,8.37
2023-02-18T14:13:56.010Z,9.73
2023-02-18T14:16:22.760Z,8.00
2023-02-18T14:18:59.738Z,8.33
2023-02-18T14:21:43.740Z,8.77
2023-02-18T14:24:11.920Z,10.97
2023-02-18T14:26:48.620Z,7.47
2023-02-18T14:29:27.358Z,6.87
2023-02-18T14:32:01.952Z,7.50
2023-02-18T14:35:00.866Z,11.00
2023-02-18T14:37:57.500Z,7.03
2023-02-18T14:40:33.821Z,8.27
2023-02-18T14:43:19.016Z,8.20
2023-02-18T14:46:25.317Z,7.97
2023-02-18T14:49:37.383Z,8.80
2023-02-18T14:52:06.610Z,11.13
2023-02-18T14:54:33.594Z,8.73
2023-02-18T14:57:17.043Z,9.50
2023-02-18T14:59:45.672Z,10.17
2023-02-18T15:02:23.580Z,10.53
2023-02-18T15:04:50.656Z,8.60
2023-02-18T15:07:20.796Z,10.13
2023-02-18T15:09:54.190Z,9.70
2023-02-18T15:12:25.620Z,13.87
2023-02-18T15:14:54.638Z,7.37
2023-02-18T15:17:25.048Z,12.40
2023-02-18T15:19:55.552Z,10.50
2023-02-18T15:22:24.493Z,11.83
2023-02-18T15:24:53.799Z,9.63
2023-02-18T15:27:24.657Z,11.70
2023-02-18T15:30:29.154Z,15.23
2023-02-18T15:32:58.584Z,8.03
2023-02-18T15:35:32.917Z,10.00
2023-02-18T15:38:01.274Z,9.17
2023-02-18T15:40:31.945Z,8.80
2023-02-18T15:43:02.111Z,8.80
2023-02-18T15:45:38.934Z,9.40
2023-02-18T15:48:06.158Z,7.37
2023-02-18T15:50:38.461Z,11.60
2023-02-18T15:53:13.843Z,7.00
2023-02-18T15:55:43.105Z,9.50
2023-02-18T15:58:21.204Z,10.23
2023-02-18T16:00:52.612Z,11.03
2023-02-18T16:03:28.824Z,8.47
2023-02-18T16:06:19.429Z,10.87
2023-02-18T16:09:18.217Z,10.20
2023-02-18T16:12:02.069Z,10.17
2023-02-18T16:14:46.326Z,11.07
2023-02-18T16:17:12.970Z,13.37
2023-02-18T16:19:51.634Z,7.93
2023-02-18T16:22:43.096Z,7.03
2023-02-18T16:25:17.661Z,9.00
2023-02-18T16:28:17.316Z,7.20
2023-02-18T16:30:46.089Z,9.57
2023-02-18T16:33:13.013Z,10.00
2023-02-18T16:35:49.666Z,9.73
2023-02-18T16:38:20.245Z,14.13
2023-02-18T16:40:47.013Z,11.13
2023-02-18T16:43:16.362Z,11.90
2023-02-18T16:45:56.018Z,10.90
2023-02-18T16:48:40.612Z,10.20
2023-02-18T16:51:13.656Z,10.20
2023-02-18T16:53:40.429Z,10.13
2023-02-18T16:56:18.203Z,13.03
2023-02-18T16:58:45.208Z,12.80
2023-02-18T17:01:29.661Z,12.90
2023-02-18T17:04:00.936Z,11.63
2023-02-18T17:06:28.979Z,11.23
2023-02-18T17:08:56.069Z,9.10
2023-02-18T17:11:34.540Z,13.43
2023-02-18T17:14:04.903Z,12.83
2023-02-18T17:16:31.868Z,9.37
2023-02-18T17:18:58.533Z,8.77
2023-02-18T17:21:25.858Z,13.47
2023-02-18T17:23:52.784Z,12.27
2023-02-18T17:26:25.396Z,30.07
2023-02-18T17:28:53.233Z,11.40
2023-02-18T17:31:55.086Z,8.63
2023-02-18T17:34:27.757Z,19.87
2023-02-18T17:36:54.503Z,19.20
2023-02-18T17:39:21.533Z,14.70
2023-02-18T17:41:48.572Z,17.83
2023-02-18T17:44:15.595Z,16.73
2023-02-18T17:46:42.360Z,18.77
2023-02-18T17:49:09.383Z,12.83
2023-02-18T17:51:38.233Z,12.37
2023-02-18T17:54:19.731Z,16.23
2023-02-18T17:56:46.925Z,24.87
2023-02-18T17:59:14.090Z,19.77
2023-02-18T18:01:41.034Z,11.77
2023-02-18T18:04:16.282Z,19.03
2023-02-18T18:06:43.523Z,17.17
2023-02-18T18:09:10.332Z,16.07
2023-02-18T18:11:37.788Z,18.13
2023-02-18T18:14:04.683Z,19.93
2023-02-18T18:16:31.397Z,15.40
2023-02-18T18:18:58.138Z,18.03
2023-02-18T18:21:35.513Z,21.77
2023-02-18T18:24:02.355Z,18.13
2023-02-18T18:26:29.869Z,20.37
2023-02-18T18:28:56.571Z,26.43
2023-02-18T18:31:23.523Z,21.20
2023-02-18T18:33:52.990Z,21.37
2023-02-18T18:36:21.388Z,24.97
2023-02-18T18:38:48.069Z,20.47
2023-02-18T18:41:17.365Z,18.73
2023-02-18T18:43:44.485Z,25.90
2023-02-18T18:46:11.285Z,24.50
2023-02-18T18:48:38.079Z,28.63
2023-02-18T18:51:05.282Z,29.03
2023-02-18T18:53:35.471Z,27.23
2023-02-18T18:56:07.120Z,26.67
2023-02-18T18:58:34.088Z,27.97
2023-02-18T19:01:03.514Z,30.10
2023-02-18T19:03:31.307Z,31.10
2023-02-18T19:05:58.173Z,32.17
2023-02-18T19:08:25.132Z,28.80
2023-02-18T19:10:54.093Z,23.07
2023-02-18T19:13:24.292Z,27.40
2023-02-18T19:15:59.153Z,21.03
2023-02-18T19:18:25.883Z,20.40
2023-02-18T19:20:52.539Z,13.20
2023-02-18T19:23:19.251Z,18.57
2023-02-18T19:25:45.980Z,21.63
2023-02-18T19:28:13.893Z,33.87
2023-02-18T19:30:44.079Z,31.80
2023-02-18T19:33:13.175Z,44.60
2023-02-18T19:35:41.330Z,37.93
2023-02-18T19:38:12.422Z,36.47
2023-02-18T19:40:39.530Z,42.10
2023-02-18T19:43:07.319Z,39.63
2023-02-18T19:45:35.365Z,44.83
2023-02-18T19:48:02.061Z,39.67
2023-02-18T19:50:32.336Z,46.07
2023-02-18T19:52:59.954Z,52.73
2023-02-18T19:55:26.692Z,47.27
2023-02-18T19:57:53.750Z,54.10
2023-02-18T20:00:22.504Z,53.20
2023-02-18T20:02:50.452Z,56.30
2023-02-18T20:05:17.835Z,63.20
2023-02-18T20:07:46.690Z,58.20
2023-02-18T20:10:16.628Z,66.00
2023-02-18T20:12:43.860Z,66.70
2023-02-18T20:15:10.667Z,70.67
2023-02-18T20:17:39.267Z,71.10
2023-02-18T20:20:06.573Z,68.00
2023-02-18T20:22:33.376Z,66.90
2023-02-18T20:25:00.185Z,76.70
2023-02-18T20:27:26.862Z,66.27
2023-02-18T20:29:53.547Z,79.27
2023-02-18T20:32:20.271Z,76.20
2023-02-18T20:34:47.022Z,72.17
2023-02-18T20:37:13.768Z,72.73
2023-02-18T20:39:40.548Z,75.70
2023-02-18T20:42:16.000Z,71.43
2023-02-18T20:44:43.823Z,69.77
2023-02-18T20:47:12.777Z,67.37
2023-02-18T20:49:40.583Z,67.53
2023-02-18T20:52:08.559Z,61.13
2023-02-18T20:54:35.281Z,61.10
2023-02-18T20:57:02.258Z,62.80
2023-02-18T20:59:35.649Z,58.60
2023-02-18T21:02:02.763Z,54.13
2023-02-18T21:04:29.547Z,48.90
2023-02-18T21:06:56.366Z,49.60
2023-02-18T21:09:23.104Z,49.93
2023-02-18T21:11:49.769Z,45.87
2023-02-18T21:14:16.474Z,59.73
2023-02-18T21:16:43.270Z,49.93
2023-02-18T21:19:15.412Z,51.00
2023-02-18T21:21:42.931Z,50.70
2023-02-18T21:24:10.003Z,50.70
2023-02-18T21:26:37.104Z,48.77
2023-02-18T21:29:07.910Z,45.83
2023-02-18T21:31:40.002Z,47.17
2023-02-18T21:34:09.885Z,46.80
2023-02-18T21:36:36.566Z,39.63
2023-02-18T21:39:06.570Z,44.13
2023-02-18T21:41:34.869Z,41.93
2023-02-18T21:44:02.489Z,47.53
2023-02-18T21:46:31.705Z,49.20
2023-02-18T21:49:02.082Z,43.50
2023-02-18T21:51:51.906Z,38.73
2023-02-18T21:54:20.870Z,37.23
2023-02-18T21:56:47.997Z,33.80
2023-02-18T21:59:14.919Z,34.37
2023-02-18T22:01:41.758Z,36.90
2023-02-18T22:04:08.612Z,35.30
2023-02-18T22:06:35.289Z,38.27
2023-02-18T22:09:03.362Z,38.40
2023-02-18T22:11:30.891Z,35.47
2023-02-18T22:13:57.938Z,31.83
2023-02-18T22:16:28.040Z,35.43
2023-02-18T22:18:57.965Z,33.97
2023-02-18T22:21:25.543Z,32.23
2023-02-18T22:23:52.659Z,35.30
2023-02-18T22:26:19.318Z,33.17
2023-02-18T22:28:51.827Z,33.93
2023-02-18T22:31:19.128Z,37.13
2023-02-18T22:33:48.854Z,36.60
2023-02-18T22:36:15.749Z,41.57
2023-02-18T22:38:42.655Z,42.53
2023-02-18T22:41:12.436Z,44.13
2023-02-18T22:43:39.631Z,45.57
2023-02-18T22:46:08.501Z,44.33
2023-02-18T22:48:37.420Z,48.10
2023-02-18T22:51:05.425Z,52.27
2023-02-18T22:53:32.420Z,52.70
2023-02-18T22:56:03.528Z,54.27
2023-02-18T22:58:30.439Z,50.80
2023-02-18T23:00:57.458Z,49.53
2023-02-18T23:03:25.401Z,53.70
2023-02-18T23:05:52.054Z,52.30
2023-02-18T23:08:18.800Z,57.87
2023-02-18T23:10:45.671Z,61.17
2023-02-18T23:13:12.482Z,54.90
2023-02-18T23:15:39.189Z,56.57
2023-02-18T23:18:05.932Z,50.40
2023-02-18T23:20:51.101Z,57.57
2023-02-18T23:23:17.797Z,52.53
2023-02-18T23:25:45.599Z,61.93
2023-02-18T23:28:12.265Z,63.40
2023-02-18T23:30:39.037Z,59.97
2023-02-18T23:33:05.845Z,58.50
2023-02-18T23:35:32.618Z,48.93
2023-02-18T23:38:05.565Z,55.87
2023-02-18T23:40:32.810Z,57.93
2023-02-18T23:42:59.554Z,63.07
2023-02-18T23:45:26.414Z,46.43
2023-02-18T23:47:53.182Z,54.83
2023-02-18T23:50:19.946Z,60.93
2023-02-18T23:52:48.654Z,53.37
2023-02-18T23:55:15.625Z,51.30
2023-02-18T23:57:42.291Z,60.27
